sensor_id;sensor_type;location;lat;lon;timestamp;P1;durP1;ratioP1;P2;durP2;ratioP2
23418;SDS011;11882;42.522;27.458;2022-08-16T00:02:06;17.40;;;15.23;;
23418;SDS011;11882;42.522;27.458;2022-08-16T00:04:33;17.47;;;15.67;;
23418;SDS011;11882;42.522;27.458;2022-08-16T00:07:00;21.30;;;15.83;;
23418;SDS011;11882;42.522;27.458;2022-08-16T00:09:28;17.67;;;15.77;;
23418;SDS011;11882;42.522;27.458;2022-08-16T00:11:55;17.37;;;15.43;;
23418;SDS011;11882;42.522;27.458;2022-08-16T00:14:23;16.73;;;14.93;;
23418;SDS011;11882;42.522;27.458;2022-08-16T00:16:54;18.77;;;15.70;;
23418;SDS011;11882;42.522;27.458;2022-08-16T00:19:22;19.93;;;15.37;;
23418;SDS011;11882;42.522;27.458;2022-08-16T00:21:50;16.43;;;14.53;;
23418;SDS011;11882;42.522;27.458;2022-08-16T00:24:19;17.83;;;15.13;;
23418;SDS011;11882;42.522;27.458;2022-08-16T00:26:46;19.23;;;15.23;;
23418;SDS011;11882;42.522;27.458;2022-08-16T00:29:14;18.50;;;15.63;;
23418;SDS011;11882;42.522;27.458;2022-08-16T00:31:42;17.17;;;15.07;;
23418;SDS011;11882;42.522;27.458;2022-08-16T00:34:11;18.73;;;15.47;;
23418;SDS011;11882;42.522;27.458;2022-08-16T00:36:39;15.70;;;14.00;;
23418;SDS011;11882;42.522;27.458;2022-08-16T00:39:06;18.67;;;14.80;;
23418;SDS011;11882;42.522;27.458;2022-08-16T00:41:33;16.37;;;14.37;;
23418;SDS011;11882;42.522;27.458;2022-08-16T00:44:02;18.10;;;14.30;;
23418;SDS011;11882;42.522;27.458;2022-08-16T00:46:36;16.87;;;14.00;;
23418;SDS011;11882;42.522;27.458;2022-08-16T00:49:09;17.00;;;14.07;;
23418;SDS011;11882;42.522;27.458;2022-08-16T00:51:40;16.27;;;14.47;;
23418;SDS011;11882;42.522;27.458;2022-08-16T00:54:08;16.77;;;14.63;;
23418;SDS011;11882;42.522;27.458;2022-08-16T00:56:36;17.03;;;14.13;;
23418;SDS011;11882;42.522;27.458;2022-08-16T00:59:06;18.30;;;16.30;;
23418;SDS011;11882;42.522;27.458;2022-08-16T01:01:35;18.03;;;14.70;;
23418;SDS011;11882;42.522;27.458;2022-08-16T01:04:02;18.23;;;16.17;;
23418;SDS011;11882;42.522;27.458;2022-08-16T01:06:31;22.00;;;16.37;;
23418;SDS011;11882;42.522;27.458;2022-08-16T01:08:59;20.63;;;16.63;;
23418;SDS011;11882;42.522;27.458;2022-08-16T01:11:30;18.20;;;16.07;;
23418;SDS011;11882;42.522;27.458;2022-08-16T01:13:59;18.50;;;16.50;;
23418;SDS011;11882;42.522;27.458;2022-08-16T01:16:32;21.07;;;17.47;;
23418;SDS011;11882;42.522;27.458;2022-08-16T01:19:00;18.57;;;16.53;;
23418;SDS011;11882;42.522;27.458;2022-08-16T01:21:35;21.73;;;17.20;;
23418;SDS011;11882;42.522;27.458;2022-08-16T01:24:18;19.30;;;17.00;;
23418;SDS011;11882;42.522;27.458;2022-08-16T01:26:50;22.90;;;17.53;;
23418;SDS011;11882;42.522;27.458;2022-08-16T01:29:21;21.90;;;17.57;;
23418;SDS011;11882;42.522;27.458;2022-08-16T01:31:51;20.67;;;18.13;;
23418;SDS011;11882;42.522;27.458;2022-08-16T01:34:18;19.70;;;17.23;;
23418;SDS011;11882;42.522;27.458;2022-08-16T01:36:45;19.20;;;17.20;;
23418;SDS011;11882;42.522;27.458;2022-08-16T01:39:14;21.93;;;17.97;;
23418;SDS011;11882;42.522;27.458;2022-08-16T01:41:45;20.50;;;17.53;;
23418;SDS011;11882;42.522;27.458;2022-08-16T01:44:12;20.57;;;17.57;;
23418;SDS011;11882;42.522;27.458;2022-08-16T01:46:40;19.20;;;17.10;;
23418;SDS011;11882;42.522;27.458;2022-08-16T01:49:11;20.17;;;17.97;;
23418;SDS011;11882;42.522;27.458;2022-08-16T01:51:41;20.30;;;18.10;;
23418;SDS011;11882;42.522;27.458;2022-08-16T01:54:10;20.67;;;17.97;;
23418;SDS011;11882;42.522;27.458;2022-08-16T01:56:37;21.77;;;18.60;;
23418;SDS011;11882;42.522;27.458;2022-08-16T01:59:06;21.23;;;18.27;;
23418;SDS011;11882;42.522;27.458;2022-08-16T02:01:36;21.90;;;18.83;;
23418;SDS011;11882;42.522;27.458;2022-08-16T02:04:03;21.23;;;18.33;;
23418;SDS011;11882;42.522;27.458;2022-08-16T02:06:30;20.60;;;18.27;;
23418;SDS011;11882;42.522;27.458;2022-08-16T02:08:58;20.20;;;18.03;;
23418;SDS011;11882;42.522;27.458;2022-08-16T02:11:26;20.30;;;18.03;;
23418;SDS011;11882;42.522;27.458;2022-08-16T02:13:54;19.70;;;17.60;;
23418;SDS011;11882;42.522;27.458;2022-08-16T02:16:22;23.33;;;19.03;;
23418;SDS011;11882;42.522;27.458;2022-08-16T02:18:50;23.47;;;19.57;;
23418;SDS011;11882;42.522;27.458;2022-08-16T02:21:18;20.83;;;18.27;;
23418;SDS011;11882;42.522;27.458;2022-08-16T02:23:46;21.53;;;18.80;;
23418;SDS011;11882;42.522;27.458;2022-08-16T02:26:13;23.80;;;19.60;;
23418;SDS011;11882;42.522;27.458;2022-08-16T02:28:40;22.53;;;19.10;;
23418;SDS011;11882;42.522;27.458;2022-08-16T02:31:09;20.87;;;18.07;;
23418;SDS011;11882;42.522;27.458;2022-08-16T02:33:40;20.97;;;17.50;;
23418;SDS011;11882;42.522;27.458;2022-08-16T02:36:08;21.50;;;17.60;;
23418;SDS011;11882;42.522;27.458;2022-08-16T02:38:35;19.70;;;17.10;;
23418;SDS011;11882;42.522;27.458;2022-08-16T02:41:05;20.33;;;17.67;;
23418;SDS011;11882;42.522;27.458;2022-08-16T02:43:33;22.27;;;17.67;;
23418;SDS011;11882;42.522;27.458;2022-08-16T02:46:01;20.57;;;18.00;;
23418;SDS011;11882;42.522;27.458;2022-08-16T02:48:30;21.97;;;17.07;;
23418;SDS011;11882;42.522;27.458;2022-08-16T02:50:59;19.63;;;17.53;;
23418;SDS011;11882;42.522;27.458;2022-08-16T02:53:28;18.83;;;16.93;;
23418;SDS011;11882;42.522;27.458;2022-08-16T02:55:55;23.10;;;17.00;;
23418;SDS011;11882;42.522;27.458;2022-08-16T02:58:23;19.43;;;17.30;;
23418;SDS011;11882;42.522;27.458;2022-08-16T03:00:50;23.03;;;18.60;;
23418;SDS011;11882;42.522;27.458;2022-08-16T03:03:17;17.57;;;15.67;;
23418;SDS011;11882;42.522;27.458;2022-08-16T03:05:45;19.23;;;16.10;;
23418;SDS011;11882;42.522;27.458;2022-08-16T03:08:14;23.63;;;18.30;;
23418;SDS011;11882;42.522;27.458;2022-08-16T03:10:41;23.10;;;17.20;;
23418;SDS011;11882;42.522;27.458;2022-08-16T03:13:08;21.27;;;17.03;;
23418;SDS011;11882;42.522;27.458;2022-08-16T03:15:36;21.30;;;17.63;;
23418;SDS011;11882;42.522;27.458;2022-08-16T03:18:03;19.80;;;17.70;;
23418;SDS011;11882;42.522;27.458;2022-08-16T03:20:30;19.80;;;17.70;;
23418;SDS011;11882;42.522;27.458;2022-08-16T03:22:57;21.33;;;17.70;;
23418;SDS011;11882;42.522;27.458;2022-08-16T03:25:26;20.87;;;17.97;;
23418;SDS011;11882;42.522;27.458;2022-08-16T03:27:53;21.17;;;17.63;;
23418;SDS011;11882;42.522;27.458;2022-08-16T03:30:21;23.40;;;18.67;;
23418;SDS011;11882;42.522;27.458;2022-08-16T03:32:49;22.03;;;17.77;;
23418;SDS011;11882;42.522;27.458;2022-08-16T03:35:17;22.57;;;18.63;;
23418;SDS011;11882;42.522;27.458;2022-08-16T03:37:45;21.67;;;17.50;;
23418;SDS011;11882;42.522;27.458;2022-08-16T03:40:13;20.37;;;18.20;;
23418;SDS011;11882;42.522;27.458;2022-08-16T03:42:42;22.13;;;18.03;;
23418;SDS011;11882;42.522;27.458;2022-08-16T03:45:09;19.23;;;17.17;;
23418;SDS011;11882;42.522;27.458;2022-08-16T03:47:38;20.23;;;16.90;;
23418;SDS011;11882;42.522;27.458;2022-08-16T03:50:06;22.87;;;17.70;;
23418;SDS011;11882;42.522;27.458;2022-08-16T03:52:34;22.50;;;18.17;;
23418;SDS011;11882;42.522;27.458;2022-08-16T03:55:02;20.40;;;17.13;;
23418;SDS011;11882;42.522;27.458;2022-08-16T03:57:30;21.33;;;17.67;;
23418;SDS011;11882;42.522;27.458;2022-08-16T03:59:58;21.00;;;17.90;;
23418;SDS011;11882;42.522;27.458;2022-08-16T04:02:25;24.70;;;18.87;;
23418;SDS011;11882;42.522;27.458;2022-08-16T04:04:52;23.50;;;19.17;;
23418;SDS011;11882;42.522;27.458;2022-08-16T04:07:19;22.43;;;18.40;;
23418;SDS011;11882;42.522;27.458;2022-08-16T04:09:46;23.70;;;18.90;;
23418;SDS011;11882;42.522;27.458;2022-08-16T04:12:14;22.40;;;18.33;;
23418;SDS011;11882;42.522;27.458;2022-08-16T04:14:41;20.87;;;17.33;;
23418;SDS011;11882;42.522;27.458;2022-08-16T04:17:09;21.00;;;18.17;;
23418;SDS011;11882;42.522;27.458;2022-08-16T04:19:38;25.00;;;18.20;;
23418;SDS011;11882;42.522;27.458;2022-08-16T04:22:06;22.23;;;17.90;;
23418;SDS011;11882;42.522;27.458;2022-08-16T04:24:33;22.57;;;18.17;;
23418;SDS011;11882;42.522;27.458;2022-08-16T04:27:00;23.20;;;17.90;;
23418;SDS011;11882;42.522;27.458;2022-08-16T04:29:26;21.80;;;16.97;;
23418;SDS011;11882;42.522;27.458;2022-08-16T04:31:54;24.53;;;16.93;;
23418;SDS011;11882;42.522;27.458;2022-08-16T04:34:23;21.40;;;17.30;;
23418;SDS011;11882;42.522;27.458;2022-08-16T04:36:51;20.90;;;17.47;;
23418;SDS011;11882;42.522;27.458;2022-08-16T04:39:18;20.27;;;17.20;;
23418;SDS011;11882;42.522;27.458;2022-08-16T04:41:45;21.20;;;17.03;;
23418;SDS011;11882;42.522;27.458;2022-08-16T04:44:12;20.43;;;17.23;;
23418;SDS011;11882;42.522;27.458;2022-08-16T04:46:39;19.63;;;16.33;;
23418;SDS011;11882;42.522;27.458;2022-08-16T04:49:06;19.77;;;16.43;;
23418;SDS011;11882;42.522;27.458;2022-08-16T04:51:37;18.73;;;16.17;;
23418;SDS011;11882;42.522;27.458;2022-08-16T04:54:05;18.73;;;16.30;;
23418;SDS011;11882;42.522;27.458;2022-08-16T04:56:33;19.43;;;15.50;;
23418;SDS011;11882;42.522;27.458;2022-08-16T04:59:00;20.00;;;16.57;;
23418;SDS011;11882;42.522;27.458;2022-08-16T05:01:27;20.70;;;15.83;;
23418;SDS011;11882;42.522;27.458;2022-08-16T05:03:54;20.20;;;15.70;;
23418;SDS011;11882;42.522;27.458;2022-08-16T05:06:21;17.93;;;15.47;;
23418;SDS011;11882;42.522;27.458;2022-08-16T05:08:50;20.27;;;15.33;;
23418;SDS011;11882;42.522;27.458;2022-08-16T05:11:17;18.13;;;15.03;;
23418;SDS011;11882;42.522;27.458;2022-08-16T05:13:45;18.07;;;13.50;;
23418;SDS011;11882;42.522;27.458;2022-08-16T05:16:14;17.97;;;13.60;;
23418;SDS011;11882;42.522;27.458;2022-08-16T05:18:43;16.03;;;12.97;;
23418;SDS011;11882;42.522;27.458;2022-08-16T05:21:10;14.50;;;12.90;;
23418;SDS011;11882;42.522;27.458;2022-08-16T05:23:37;15.10;;;13.23;;
23418;SDS011;11882;42.522;27.458;2022-08-16T05:26:06;16.83;;;13.00;;
23418;SDS011;11882;42.522;27.458;2022-08-16T05:28:33;15.23;;;13.23;;
23418;SDS011;11882;42.522;27.458;2022-08-16T05:31:00;16.23;;;13.33;;
23418;SDS011;11882;42.522;27.458;2022-08-16T05:33:27;14.40;;;12.50;;
23418;SDS011;11882;42.522;27.458;2022-08-16T05:35:54;14.10;;;11.97;;
23418;SDS011;11882;42.522;27.458;2022-08-16T05:38:21;14.07;;;12.10;;
23418;SDS011;11882;42.522;27.458;2022-08-16T05:40:52;14.53;;;12.03;;
23418;SDS011;11882;42.522;27.458;2022-08-16T05:43:20;15.67;;;11.83;;
23418;SDS011;11882;42.522;27.458;2022-08-16T05:45:47;13.97;;;11.07;;
23418;SDS011;11882;42.522;27.458;2022-08-16T05:48:14;14.97;;;11.37;;
23418;SDS011;11882;42.522;27.458;2022-08-16T05:50:41;13.37;;;10.73;;
23418;SDS011;11882;42.522;27.458;2022-08-16T05:53:08;12.67;;;10.90;;
23418;SDS011;11882;42.522;27.458;2022-08-16T05:55:35;14.93;;;10.90;;
23418;SDS011;11882;42.522;27.458;2022-08-16T05:58:02;19.20;;;11.30;;
23418;SDS011;11882;42.522;27.458;2022-08-16T06:00:31;12.03;;;10.80;;
23418;SDS011;11882;42.522;27.458;2022-08-16T06:02:58;11.90;;;10.63;;
23418;SDS011;11882;42.522;27.458;2022-08-16T06:05:25;15.23;;;11.00;;
23418;SDS011;11882;42.522;27.458;2022-08-16T06:07:52;12.20;;;10.27;;
23418;SDS011;11882;42.522;27.458;2022-08-16T06:10:19;13.17;;;10.53;;
23418;SDS011;11882;42.522;27.458;2022-08-16T06:12:46;11.40;;;10.30;;
23418;SDS011;11882;42.522;27.458;2022-08-16T06:15:15;12.30;;;11.00;;
23418;SDS011;11882;42.522;27.458;2022-08-16T06:17:46;14.43;;;11.13;;
23418;SDS011;11882;42.522;27.458;2022-08-16T06:20:14;13.93;;;10.80;;
23418;SDS011;11882;42.522;27.458;2022-08-16T06:22:43;18.50;;;10.53;;
23418;SDS011;11882;42.522;27.458;2022-08-16T06:25:10;11.57;;;10.37;;
23418;SDS011;11882;42.522;27.458;2022-08-16T06:27:37;11.50;;;10.30;;
23418;SDS011;11882;42.522;27.458;2022-08-16T06:30:04;12.83;;;11.13;;
23418;SDS011;11882;42.522;27.458;2022-08-16T06:32:32;11.70;;;10.50;;
23418;SDS011;11882;42.522;27.458;2022-08-16T06:35:01;12.10;;;10.90;;
23418;SDS011;11882;42.522;27.458;2022-08-16T06:37:28;12.83;;;10.63;;
23418;SDS011;11882;42.522;27.458;2022-08-16T06:39:55;12.20;;;10.70;;
23418;SDS011;11882;42.522;27.458;2022-08-16T06:42:22;12.10;;;10.90;;
23418;SDS011;11882;42.522;27.458;2022-08-16T06:44:49;14.10;;;10.97;;
23418;SDS011;11882;42.522;27.458;2022-08-16T06:47:16;14.87;;;10.53;;
23418;SDS011;11882;42.522;27.458;2022-08-16T06:49:43;13.73;;;11.20;;
23418;SDS011;11882;42.522;27.458;2022-08-16T06:52:12;14.53;;;11.03;;
23418;SDS011;11882;42.522;27.458;2022-08-16T06:54:39;12.07;;;10.80;;
23418;SDS011;11882;42.522;27.458;2022-08-16T06:57:06;12.33;;;11.00;;
23418;SDS011;11882;42.522;27.458;2022-08-16T06:59:34;12.40;;;11.10;;
23418;SDS011;11882;42.522;27.458;2022-08-16T07:02:02;13.73;;;11.20;;
23418;SDS011;11882;42.522;27.458;2022-08-16T07:04:29;12.60;;;10.27;;
23418;SDS011;11882;42.522;27.458;2022-08-16T07:06:56;11.27;;;10.10;;
23418;SDS011;11882;42.522;27.458;2022-08-16T07:09:24;16.93;;;11.37;;
23418;SDS011;11882;42.522;27.458;2022-08-16T07:11:52;12.57;;;10.57;;
23418;SDS011;11882;42.522;27.458;2022-08-16T07:14:18;11.90;;;9.93;;
23418;SDS011;11882;42.522;27.458;2022-08-16T07:16:45;11.97;;;10.77;;
23418;SDS011;11882;42.522;27.458;2022-08-16T07:19:12;11.07;;;9.97;;
23418;SDS011;11882;42.522;27.458;2022-08-16T07:21:41;12.03;;;10.30;;
23418;SDS011;11882;42.522;27.458;2022-08-16T07:24:08;12.63;;;10.10;;
23418;SDS011;11882;42.522;27.458;2022-08-16T07:26:37;13.43;;;10.90;;
23418;SDS011;11882;42.522;27.458;2022-08-16T07:29:05;11.47;;;10.27;;
23418;SDS011;11882;42.522;27.458;2022-08-16T07:31:32;12.00;;;10.33;;
23418;SDS011;11882;42.522;27.458;2022-08-16T07:33:59;12.27;;;10.13;;
23418;SDS011;11882;42.522;27.458;2022-08-16T07:36:26;11.57;;;10.43;;
23418;SDS011;11882;42.522;27.458;2022-08-16T07:38:53;12.47;;;10.47;;
23418;SDS011;11882;42.522;27.458;2022-08-16T07:41:20;11.40;;;10.17;;
23418;SDS011;11882;42.522;27.458;2022-08-16T07:43:48;11.13;;;9.90;;
23418;SDS011;11882;42.522;27.458;2022-08-16T07:46:15;13.10;;;10.73;;
23418;SDS011;11882;42.522;27.458;2022-08-16T07:48:42;11.80;;;10.60;;
23418;SDS011;11882;42.522;27.458;2022-08-16T07:51:09;13.73;;;10.43;;
23418;SDS011;11882;42.522;27.458;2022-08-16T07:53:36;11.90;;;10.37;;
23418;SDS011;11882;42.522;27.458;2022-08-16T07:56:03;12.13;;;10.80;;
23418;SDS011;11882;42.522;27.458;2022-08-16T07:58:31;11.13;;;9.83;;
23418;SDS011;11882;42.522;27.458;2022-08-16T08:01:00;14.03;;;10.50;;
23418;SDS011;11882;42.522;27.458;2022-08-16T08:03:29;12.07;;;10.60;;
23418;SDS011;11882;42.522;27.458;2022-08-16T08:05:58;13.90;;;10.87;;
23418;SDS011;11882;42.522;27.458;2022-08-16T08:08:25;12.33;;;10.60;;
23418;SDS011;11882;42.522;27.458;2022-08-16T08:10:53;14.80;;;10.07;;
23418;SDS011;11882;42.522;27.458;2022-08-16T08:13:20;12.20;;;10.80;;
23418;SDS011;11882;42.522;27.458;2022-08-16T08:15:47;11.70;;;10.53;;
23418;SDS011;11882;42.522;27.458;2022-08-16T08:18:16;11.50;;;10.30;;
23418;SDS011;11882;42.522;27.458;2022-08-16T08:20:43;12.17;;;10.20;;
23418;SDS011;11882;42.522;27.458;2022-08-16T08:23:10;11.20;;;10.03;;
23418;SDS011;11882;42.522;27.458;2022-08-16T08:25:39;13.00;;;10.17;;
23418;SDS011;11882;42.522;27.458;2022-08-16T08:28:06;13.37;;;10.27;;
23418;SDS011;11882;42.522;27.458;2022-08-16T08:30:34;12.53;;;10.97;;
23418;SDS011;11882;42.522;27.458;2022-08-16T08:33:01;12.10;;;10.73;;
23418;SDS011;11882;42.522;27.458;2022-08-16T08:35:30;10.93;;;9.80;;
23418;SDS011;11882;42.522;27.458;2022-08-16T08:37:58;11.63;;;10.43;;
23418;SDS011;11882;42.522;27.458;2022-08-16T08:40:26;11.30;;;10.20;;
23418;SDS011;11882;42.522;27.458;2022-08-16T08:42:54;13.00;;;10.70;;
23418;SDS011;11882;42.522;27.458;2022-08-16T08:45:22;12.18;;;10.35;;
23418;SDS011;11882;42.522;27.458;2022-08-16T08:47:49;12.17;;;10.97;;
23418;SDS011;11882;42.522;27.458;2022-08-16T08:50:16;11.50;;;10.30;;
23418;SDS011;11882;42.522;27.458;2022-08-16T08:52:45;10.30;;;9.30;;
23418;SDS011;11882;42.522;27.458;2022-08-16T08:55:13;11.10;;;9.93;;
23418;SDS011;11882;42.522;27.458;2022-08-16T08:57:41;11.20;;;9.93;;
23418;SDS011;11882;42.522;27.458;2022-08-16T09:00:12;11.03;;;9.47;;
23418;SDS011;11882;42.522;27.458;2022-08-16T09:02:42;11.37;;;10.27;;
23418;SDS011;11882;42.522;27.458;2022-08-16T09:05:10;10.25;;;9.07;;
23418;SDS011;11882;42.522;27.458;2022-08-16T09:07:38;10.13;;;9.10;;
23418;SDS011;11882;42.522;27.458;2022-08-16T09:10:07;10.80;;;9.33;;
23418;SDS011;11882;42.522;27.458;2022-08-16T09:12:34;10.20;;;9.20;;
23418;SDS011;11882;42.522;27.458;2022-08-16T09:15:02;10.10;;;9.10;;
23418;SDS011;11882;42.522;27.458;2022-08-16T09:17:30;9.93;;;8.93;;
23418;SDS011;11882;42.522;27.458;2022-08-16T09:19:57;10.30;;;9.27;;
23418;SDS011;11882;42.522;27.458;2022-08-16T09:22:24;9.23;;;8.33;;
23418;SDS011;11882;42.522;27.458;2022-08-16T09:24:53;12.53;;;9.43;;
23418;SDS011;11882;42.522;27.458;2022-08-16T09:27:22;9.80;;;8.90;;
23418;SDS011;11882;42.522;27.458;2022-08-16T09:29:50;9.87;;;8.87;;
23418;SDS011;11882;42.522;27.458;2022-08-16T09:32:17;9.07;;;8.00;;
23418;SDS011;11882;42.522;27.458;2022-08-16T09:34:44;9.53;;;8.53;;
23418;SDS011;11882;42.522;27.458;2022-08-16T09:37:11;10.93;;;9.00;;
23418;SDS011;11882;42.522;27.458;2022-08-16T09:39:40;9.32;;;8.43;;
23418;SDS011;11882;42.522;27.458;2022-08-16T09:42:07;9.30;;;8.30;;
23418;SDS011;11882;42.522;27.458;2022-08-16T09:44:35;9.25;;;8.35;;
23418;SDS011;11882;42.522;27.458;2022-08-16T09:47:02;9.35;;;8.45;;
23418;SDS011;11882;42.522;27.458;2022-08-16T09:49:29;10.23;;;8.60;;
23418;SDS011;11882;42.522;27.458;2022-08-16T09:51:56;8.10;;;7.37;;
23418;SDS011;11882;42.522;27.458;2022-08-16T09:54:24;7.90;;;7.10;;
23418;SDS011;11882;42.522;27.458;2022-08-16T09:56:53;8.77;;;7.97;;
23418;SDS011;11882;42.522;27.458;2022-08-16T09:59:21;8.70;;;7.90;;
23418;SDS011;11882;42.522;27.458;2022-08-16T10:01:51;9.02;;;8.23;;
23418;SDS011;11882;42.522;27.458;2022-08-16T10:04:19;8.40;;;7.57;;
23418;SDS011;11882;42.522;27.458;2022-08-16T10:06:46;10.25;;;7.88;;
23418;SDS011;11882;42.522;27.458;2022-08-16T10:09:13;10.05;;;8.90;;
23418;SDS011;11882;42.522;27.458;2022-08-16T10:11:41;8.63;;;7.78;;
23418;SDS011;11882;42.522;27.458;2022-08-16T10:14:26;7.78;;;6.97;;
23418;SDS011;11882;42.522;27.458;2022-08-16T10:16:56;7.80;;;6.88;;
23418;SDS011;11882;42.522;27.458;2022-08-16T10:19:24;7.88;;;7.07;;
23418;SDS011;11882;42.522;27.458;2022-08-16T10:21:52;8.83;;;7.70;;
23418;SDS011;11882;42.522;27.458;2022-08-16T10:24:19;9.38;;;7.03;;
23418;SDS011;11882;42.522;27.458;2022-08-16T10:26:46;7.22;;;6.50;;
23418;SDS011;11882;42.522;27.458;2022-08-16T10:29:13;9.02;;;6.35;;
23418;SDS011;11882;42.522;27.458;2022-08-16T10:31:40;7.70;;;6.82;;
23418;SDS011;11882;42.522;27.458;2022-08-16T10:34:09;10.50;;;8.67;;
23418;SDS011;11882;42.522;27.458;2022-08-16T10:36:36;7.43;;;6.72;;
23418;SDS011;11882;42.522;27.458;2022-08-16T10:39:03;7.68;;;6.90;;
23418;SDS011;11882;42.522;27.458;2022-08-16T10:41:30;10.52;;;6.80;;
23418;SDS011;11882;42.522;27.458;2022-08-16T10:43:58;9.23;;;7.38;;
23418;SDS011;11882;42.522;27.458;2022-08-16T10:46:25;7.82;;;7.03;;
23418;SDS011;11882;42.522;27.458;2022-08-16T10:48:52;7.57;;;6.38;;
23418;SDS011;11882;42.522;27.458;2022-08-16T10:51:21;8.23;;;7.00;;
23418;SDS011;11882;42.522;27.458;2022-08-16T10:53:48;7.82;;;6.70;;
23418;SDS011;11882;42.522;27.458;2022-08-16T10:56:15;7.53;;;6.72;;
23418;SDS011;11882;42.522;27.458;2022-08-16T10:58:42;8.23;;;7.00;;
23418;SDS011;11882;42.522;27.458;2022-08-16T11:01:09;7.57;;;6.75;;
23418;SDS011;11882;42.522;27.458;2022-08-16T11:03:39;8.45;;;6.35;;
23418;SDS011;11882;42.522;27.458;2022-08-16T11:06:07;7.95;;;6.75;;
23418;SDS011;11882;42.522;27.458;2022-08-16T11:08:35;9.27;;;7.43;;
23418;SDS011;11882;42.522;27.458;2022-08-16T11:11:04;8.85;;;7.35;;
23418;SDS011;11882;42.522;27.458;2022-08-16T11:13:31;7.72;;;7.03;;
23418;SDS011;11882;42.522;27.458;2022-08-16T11:15:59;8.63;;;6.93;;
23418;SDS011;11882;42.522;27.458;2022-08-16T11:18:26;7.13;;;6.43;;
23418;SDS011;11882;42.522;27.458;2022-08-16T11:20:54;10.50;;;7.15;;
23418;SDS011;11882;42.522;27.458;2022-08-16T11:23:22;8.27;;;6.72;;
23418;SDS011;11882;42.522;27.458;2022-08-16T11:25:52;8.70;;;7.10;;
23418;SDS011;11882;42.522;27.458;2022-08-16T11:28:19;8.25;;;7.05;;
23418;SDS011;11882;42.522;27.458;2022-08-16T11:30:46;7.20;;;6.50;;
23418;SDS011;11882;42.522;27.458;2022-08-16T11:33:14;9.40;;;8.30;;
23418;SDS011;11882;42.522;27.458;2022-08-16T11:35:41;8.07;;;7.20;;
23418;SDS011;11882;42.522;27.458;2022-08-16T11:38:09;8.18;;;7.20;;
23418;SDS011;11882;42.522;27.458;2022-08-16T11:40:40;7.95;;;7.15;;
23418;SDS011;11882;42.522;27.458;2022-08-16T11:43:13;8.10;;;6.70;;
23418;SDS011;11882;42.522;27.458;2022-08-16T11:45:40;7.68;;;6.18;;
23418;SDS011;11882;42.522;27.458;2022-08-16T11:48:07;8.43;;;7.43;;
23418;SDS011;11882;42.522;27.458;2022-08-16T11:50:34;8.68;;;7.18;;
23418;SDS011;11882;42.522;27.458;2022-08-16T11:53:02;13.63;;;8.55;;
23418;SDS011;11882;42.522;27.458;2022-08-16T11:55:31;8.45;;;7.63;;
23418;SDS011;11882;42.522;27.458;2022-08-16T11:57:59;8.80;;;7.18;;
23418;SDS011;11882;42.522;27.458;2022-08-16T12:00:28;8.50;;;6.60;;
23418;SDS011;11882;42.522;27.458;2022-08-16T12:02:56;7.22;;;6.00;;
23418;SDS011;11882;42.522;27.458;2022-08-16T12:05:24;7.95;;;5.25;;
23418;SDS011;11882;42.522;27.458;2022-08-16T12:07:52;7.72;;;5.43;;
23418;SDS011;11882;42.522;27.458;2022-08-16T12:10:19;6.38;;;5.13;;
23418;SDS011;11882;42.522;27.458;2022-08-16T12:12:47;9.35;;;6.22;;
23418;SDS011;11882;42.522;27.458;2022-08-16T12:15:16;10.75;;;7.30;;
23418;SDS011;11882;42.522;27.458;2022-08-16T12:17:46;9.55;;;8.25;;
23418;SDS011;11882;42.522;27.458;2022-08-16T12:20:15;9.83;;;8.43;;
23418;SDS011;11882;42.522;27.458;2022-08-16T12:22:48;9.97;;;8.07;;
23418;SDS011;11882;42.522;27.458;2022-08-16T12:25:16;11.17;;;8.60;;
23418;SDS011;11882;42.522;27.458;2022-08-16T12:27:44;15.57;;;8.40;;
23418;SDS011;11882;42.522;27.458;2022-08-16T12:30:13;9.90;;;8.90;;
23418;SDS011;11882;42.522;27.458;2022-08-16T12:32:41;12.70;;;9.30;;
23418;SDS011;11882;42.522;27.458;2022-08-16T12:35:10;10.07;;;8.60;;
23418;SDS011;11882;42.522;27.458;2022-08-16T12:37:39;12.27;;;9.43;;
23418;SDS011;11882;42.522;27.458;2022-08-16T12:40:09;10.43;;;9.33;;
23418;SDS011;11882;42.522;27.458;2022-08-16T12:42:39;14.20;;;8.50;;
23418;SDS011;11882;42.522;27.458;2022-08-16T12:45:07;13.80;;;8.30;;
23418;SDS011;11882;42.522;27.458;2022-08-16T12:47:37;12.50;;;8.73;;
23418;SDS011;11882;42.522;27.458;2022-08-16T12:50:23;10.23;;;7.83;;
23418;SDS011;11882;42.522;27.458;2022-08-16T12:52:50;14.03;;;7.97;;
23418;SDS011;11882;42.522;27.458;2022-08-16T12:55:17;10.47;;;7.20;;
23418;SDS011;11882;42.522;27.458;2022-08-16T12:57:45;10.87;;;7.60;;
23418;SDS011;11882;42.522;27.458;2022-08-16T13:00:12;11.20;;;7.00;;
23418;SDS011;11882;42.522;27.458;2022-08-16T13:02:40;13.97;;;7.77;;
23418;SDS011;11882;42.522;27.458;2022-08-16T13:05:08;11.73;;;6.50;;
23418;SDS011;11882;42.522;27.458;2022-08-16T13:07:38;11.30;;;6.50;;
23418;SDS011;11882;42.522;27.458;2022-08-16T13:10:06;13.33;;;6.37;;
23418;SDS011;11882;42.522;27.458;2022-08-16T13:12:38;12.10;;;6.17;;
23418;SDS011;11882;42.522;27.458;2022-08-16T13:15:08;9.20;;;6.53;;
23418;SDS011;11882;42.522;27.458;2022-08-16T13:17:38;8.97;;;6.70;;
23418;SDS011;11882;42.522;27.458;2022-08-16T13:20:06;10.60;;;7.00;;
23418;SDS011;11882;42.522;27.458;2022-08-16T13:22:35;9.07;;;7.80;;
23418;SDS011;11882;42.522;27.458;2022-08-16T13:25:07;10.63;;;7.77;;
23418;SDS011;11882;42.522;27.458;2022-08-16T13:27:35;12.83;;;8.90;;
23418;SDS011;11882;42.522;27.458;2022-08-16T13:30:03;12.30;;;8.37;;
23418;SDS011;11882;42.522;27.458;2022-08-16T13:32:30;10.20;;;9.20;;
23418;SDS011;11882;42.522;27.458;2022-08-16T13:34:57;15.73;;;9.63;;
23418;SDS011;11882;42.522;27.458;2022-08-16T13:37:24;10.97;;;9.83;;
23418;SDS011;11882;42.522;27.458;2022-08-16T13:39:53;10.13;;;9.10;;
23418;SDS011;11882;42.522;27.458;2022-08-16T13:42:20;9.80;;;8.80;;
23418;SDS011;11882;42.522;27.458;2022-08-16T13:44:47;13.17;;;11.60;;
23418;SDS011;11882;42.522;27.458;2022-08-16T13:47:14;11.50;;;9.50;;
23418;SDS011;11882;42.522;27.458;2022-08-16T13:49:41;10.23;;;9.07;;
23418;SDS011;11882;42.522;27.458;2022-08-16T13:52:10;11.00;;;8.53;;
23418;SDS011;11882;42.522;27.458;2022-08-16T13:54:37;9.53;;;8.53;;
23418;SDS011;11882;42.522;27.458;2022-08-16T13:57:06;10.90;;;9.33;;
23418;SDS011;11882;42.522;27.458;2022-08-16T13:59:33;12.23;;;9.23;;
23418;SDS011;11882;42.522;27.458;2022-08-16T14:02:00;9.90;;;8.90;;
23418;SDS011;11882;42.522;27.458;2022-08-16T14:04:30;10.90;;;9.17;;
23418;SDS011;11882;42.522;27.458;2022-08-16T14:06:59;9.33;;;8.43;;
23418;SDS011;11882;42.522;27.458;2022-08-16T14:09:27;10.63;;;9.00;;
23418;SDS011;11882;42.522;27.458;2022-08-16T14:11:56;10.77;;;9.63;;
23418;SDS011;11882;42.522;27.458;2022-08-16T14:14:25;10.40;;;9.40;;
23418;SDS011;11882;42.522;27.458;2022-08-16T14:16:53;11.50;;;9.07;;
23418;SDS011;11882;42.522;27.458;2022-08-16T14:19:20;9.63;;;8.53;;
23418;SDS011;11882;42.522;27.458;2022-08-16T14:21:47;9.93;;;8.93;;